地図

経路データ

SID SEASON NUMBER BASIN SUBBASIN NAME ISO_TIME NATURE LAT LON WMO_WIND WMO_PRES WMO_AGENCY TRACK_TYPE DIST2LAND LANDFALL IFLAG USA_AGENCY USA_ATCF_ID USA_LAT USA_LON USA_RECORD USA_STATUS USA_WIND USA_PRES USA_SSHS USA_R34_NE USA_R34_SE USA_R34_SW USA_R34_NW USA_R50_NE USA_R50_SE USA_R50_SW USA_R50_NW USA_R64_NE USA_R64_SE USA_R64_SW USA_R64_NW USA_POCI USA_ROCI USA_RMW USA_EYE TOKYO_LAT TOKYO_LON TOKYO_GRADE TOKYO_WIND TOKYO_PRES TOKYO_R50_DIR TOKYO_R50_LONG TOKYO_R50_SHORT TOKYO_R30_DIR TOKYO_R30_LONG TOKYO_R30_SHORT TOKYO_LAND CMA_LAT CMA_LON CMA_CAT CMA_WIND CMA_PRES HKO_LAT HKO_LON HKO_CAT HKO_WIND HKO_PRES NEWDELHI_LAT NEWDELHI_LON NEWDELHI_GRADE NEWDELHI_WIND NEWDELHI_PRES NEWDELHI_CI NEWDELHI_DP NEWDELHI_POCI REUNION_LAT REUNION_LON REUNION_TYPE REUNION_WIND REUNION_PRES REUNION_TNUM REUNION_CI REUNION_RMW REUNION_R34_NE REUNION_R34_SE REUNION_R34_SW REUNION_R34_NW REUNION_R50_NE REUNION_R50_SE REUNION_R50_SW REUNION_R50_NW REUNION_R64_NE REUNION_R64_SE REUNION_R64_SW REUNION_R64_NW BOM_LAT BOM_LON BOM_TYPE BOM_WIND BOM_PRES BOM_TNUM BOM_CI BOM_RMW BOM_R34_NE BOM_R34_SE BOM_R34_SW BOM_R34_NW BOM_R50_NE BOM_R50_SE BOM_R50_SW BOM_R50_NW BOM_R64_NE BOM_R64_SE BOM_R64_SW BOM_R64_NW BOM_ROCI BOM_POCI BOM_EYE BOM_POS_METHOD BOM_PRES_METHOD NADI_LAT NADI_LON NADI_CAT NADI_WIND NADI_PRES WELLINGTON_LAT WELLINGTON_LON WELLINGTON_WIND WELLINGTON_PRES DS824_LAT DS824_LON DS824_STAGE DS824_WIND DS824_PRES TD9636_LAT TD9636_LON TD9636_STAGE TD9636_WIND TD9636_PRES TD9635_LAT TD9635_LON TD9635_WIND TD9635_PRES TD9635_ROCI NEUMANN_LAT NEUMANN_LON NEUMANN_CLASS NEUMANN_WIND NEUMANN_PRES MLC_LAT MLC_LON MLC_CLASS MLC_WIND MLC_PRES USA_GUST BOM_GUST BOM_GUST_PER REUNION_GUST REUNION_GUST_PER USA_SEAHGT USA_SEARAD_NE USA_SEARAD_SE USA_SEARAD_SW USA_SEARAD_NW STORM_SPEED STORM_DIR
1933359S17154 1934 81 SP EA NOT_NAMED 1933-12-24 23:00:00 NR -16.7000 153.800 bom main 663 663 ______O___O___ -1 -16.8000 153.800 -16.6000 153.800 7 3 229
1933359S17154 1934 81 SP EA NOT_NAMED 1933-12-25 00:00:00 TS -16.7369 153.769 main 663 648 ______P__OP___ -1 -16.8234 153.758 -16.8000 153.800 TC -16.6189 153.765 7 3 233
1933359S17154 1934 81 SP EA NOT_NAMED 1933-12-25 03:00:00 TS -16.8062 153.652 main 648 624 ______P__PP___ -1 -16.8933 153.633 -16.8676 153.675 TC -16.6782 153.657 7 3 238
1933359S17154 1934 81 SP EA NOT_NAMED 1933-12-25 06:00:00 TS -16.8763 153.531 main 624 616 ______P__PP___ -1 -16.9622 153.510 -16.9347 153.551 TC -16.7467 153.539 7 3 238
1933359S17154 1934 81 SP EA NOT_NAMED 1933-12-25 09:00:00 TS -16.9538 153.407 main 609 600 ______P__PP___ -1 -17.0294 153.389 -17.0008 153.429 TC -16.8313 153.404 7 3 238
1933359S17154 1934 81 SP EA NOT_NAMED 1933-12-25 11:00:00 TS -17.0056 153.320 main 600 600 ______P__PO___ -1 -17.0729 153.311 -17.0440 153.350 TC -16.9000 153.300 7 3 238
1933359S17154 1934 81 SP EA NOT_NAMED 1933-12-25 12:00:00 TS -17.0328 153.275 main 600 577 ______P__PP___ -1 -17.0942 153.272 -17.0654 153.311 TC -16.9387 153.244 7 3 237
1933359S17154 1934 81 SP EA NOT_NAMED 1933-12-25 15:00:00 TS -17.1171 153.140 main 577 561 ______P__PP___ -1 -17.1559 153.161 -17.1281 153.197 TC -17.0673 153.061 7 3 237
1933359S17154 1934 81 SP EA NOT_NAMED 1933-12-25 18:00:00 TS -17.2015 153.007 main 561 546 ______P__PP___ -1 -17.2138 153.056 -17.1884 153.090 TC -17.2025 152.873 7 3 236
1933359S17154 1934 81 SP EA NOT_NAMED 1933-12-25 21:00:00 TS -17.2806 152.883 main 546 538 ______P__PP___ -1 -17.2672 152.960 -17.2458 152.991 TC -17.3286 152.699 7 3 236
1933359S17154 1934 81 SP EA NOT_NAMED 1933-12-25 23:00:00 TS -17.3274 152.810 990 bom main 538 538 ______O__PO___ -1 -17.3000 152.900 990 4 -17.2823 152.929 TC -17.4000 152.600 7 2 238
1933359S17154 1934 81 SP EA NOT_NAMED 1933-12-26 00:00:00 TS -17.3470 152.777 main 538 523 ______P__OP___ -1 -17.3155 152.872 -17.3000 152.900 TC 45 990 -17.4255 152.560 7 2 237
1933359S17154 1934 81 SP EA NOT_NAMED 1933-12-26 03:00:00 TS -17.3985 152.691 main 523 514 ______P__PP___ -1 -17.3596 152.793 -17.3511 152.818 TC -17.4848 152.463 7 2 238
1933359S17154 1934 81 SP EA NOT_NAMED 1933-12-26 06:00:00 TS -17.4444 152.618 main 514 507 ______P__PP___ -1 -17.4027 152.721 -17.4020 152.744 TC -17.5285 152.390 7 2 234
1933359S17154 1934 81 SP EA NOT_NAMED 1933-12-26 09:00:00 TS -17.4911 152.553 main 507 499 ______P__PP___ -1 -17.4485 152.652 -17.4562 152.674 TC -17.5688 152.334 7 2 232
1933359S17154 1934 81 SP EA NOT_NAMED 1933-12-26 11:00:00 TS -17.5260 152.512 main 499 499 ______P__PO___ -1 -17.4822 152.607 -17.4959 152.629 TC -17.6000 152.300 7 2 227
1933359S17154 1934 81 SP EA NOT_NAMED 1933-12-26 12:00:00 TS -17.5448 152.492 main 499 484 ______P__PP___ -1 -17.5004 152.584 -17.5172 152.607 TC -17.6167 152.285 7 2 224
1933359S17154 1934 81 SP EA NOT_NAMED 1933-12-26 15:00:00 TS -17.6069 152.433 main 484 477 ______P__PP___ -1 -17.5619 152.515 -17.5886 152.538 TC -17.6703 152.247 7 2 219
1933359S17154 1934 81 SP EA NOT_NAMED 1933-12-26 18:00:00 TS -17.6823 152.372 main 477 462 ______P__PP___ -1 -17.6367 152.441 -17.6738 152.466 TC -17.7364 152.208 7 2 216
1933359S17154 1934 81 SP EA NOT_NAMED 1933-12-26 21:00:00 TS -17.7763 152.300 main 462 453 ______P__PP___ -1 -17.7281 152.359 -17.7765 152.387 TC -17.8245 152.153 7 3 216
1933359S17154 1934 81 SP EA NOT_NAMED 1933-12-26 23:00:00 TS -17.8521 152.243 bom main 446 446 ______O__PO___ -1 -17.8000 152.300 -17.8563 152.330 TC -17.9000 152.100 7 3 222
1933359S17154 1934 81 SP EA NOT_NAMED 1933-12-27 00:00:00 TS -17.8777 152.204 main 446 430 ______P__OP___ -1 -17.7882 152.254 -17.9000 152.300 TC -17.9450 152.059 7 3 248
1933359S17154 1934 81 SP EA NOT_NAMED 1933-12-27 03:00:00 TS -17.9332 152.026 main 430 406 ______P__PP___ -1 -17.7415 152.104 -17.9563 152.065 TC -18.1019 151.910 7 4 251
1933359S17154 1934 81 SP EA NOT_NAMED 1933-12-27 06:00:00 TS -18.0022 151.832 main 406 391 ______P__PP___ -1 -17.7031 151.945 -18.0215 151.806 TC -18.2820 151.745 7 4 246
1933359S17154 1934 81 SP EA NOT_NAMED 1933-12-27 09:00:00 TS -18.0965 151.641 main 383 368 ______P__PP___ -1 -17.7051 151.785 -18.1116 151.551 TC -18.4729 151.588 7 4 239
1933359S17154 1934 81 SP EA NOT_NAMED 1933-12-27 11:00:00 TS -18.1794 151.526 main 368 368 ______P__PO___ -1 -17.7449 151.682 -18.1933 151.396 TC -18.6000 151.500 7 4 233
1933359S17154 1934 81 SP EA NOT_NAMED 1933-12-27 12:00:00 TS -18.2191 151.468 main 368 337 ______P__PP___ -1 -17.7799 151.633 -18.2425 151.327 TC -18.6348 151.444 7 4 226
1933359S17154 1934 81 SP EA NOT_NAMED 1933-12-27 15:00:00 TS -18.3733 151.317 main 337 315 ______P__PP___ -1 -17.9598 151.500 -18.4306 151.161 TC -18.7296 151.290 7 5 211
1933359S17154 1934 81 SP EA NOT_NAMED 1933-12-27 18:00:00 TS -18.6085 151.223 main 315 296 ______P__PP___ -1 -18.2772 151.393 -18.6920 151.083 TC -18.8562 151.192 7 6 189
1933359S17154 1934 81 SP EA NOT_NAMED 1933-12-27 21:00:00 TS -18.9607 151.216 main 290 279 ______P__PP___ -1 -18.7646 151.323 -19.0431 151.120 TC -19.0743 151.205 7 8 176
1933359S17154 1934 81 SP EA NOT_NAMED 1933-12-27 23:00:00 TS -19.2783 151.274 bom main 284 279 ______O__PO___ -1 -19.2000 151.300 -19.3350 151.222 TC -19.3000 151.300 7 11 170
1933359S17154 1934 81 SP EA NOT_NAMED 1933-12-28 00:00:00 TS -19.4741 151.319 main 274 270 ______P__OP___ -1 -19.4596 151.278 -19.5000 151.300 TC -19.4628 151.377 7 13 164
1933359S17154 1934 81 SP EA NOT_NAMED 1933-12-28 02:00:00 TS -19.9177 151.467 bom main 274 264 ______O__PP___ -1 -20.0000 151.300 -19.9072 151.511 TC -19.8460 151.590 7 14 160
1933359S17154 1934 81 SP EA NOT_NAMED 1933-12-28 03:00:00 TS -20.1474 151.577 main 273 223 ______P__PP___ -1 -20.2542 151.370 -20.1280 151.638 TC -20.0600 151.722 7 16 150
1933359S17154 1934 81 SP EA NOT_NAMED 1933-12-28 06:00:00 TS -20.8509 152.040 main 214 212 ______P__PP___ -1 -20.9678 151.814 -20.8301 152.102 TC -20.7547 152.203 7 17 144
1933359S17154 1934 81 SP EA NOT_NAMED 1933-12-28 09:00:00 TS -21.5382 152.646 main 216 216 ______P__PP___ -1 -21.6100 152.492 -21.5421 152.664 TC -21.4624 152.782 7 18 139
1933359S17154 1934 81 SP EA NOT_NAMED 1933-12-28 11:00:00 TS -21.9636 153.094 bom main 243 243 ______O__PO___ -1 -22.0000 153.000 -21.9907 153.082 TC -21.9000 153.200 7 18 135
1933359S17154 1934 81 SP EA NOT_NAMED 1933-12-28 12:00:00 TS -22.1630 153.311 main 259 242 ______P__OP___ -1 -22.1984 153.228 -22.2000 153.300 TC -22.0906 153.407 7 17 131
1933359S17154 1934 81 SP EA NOT_NAMED 1933-12-28 15:00:00 TS -22.7104 154.006 main 245 225 ______P__PP___ -1 -22.7518 153.962 -22.7554 153.983 TC -22.6240 154.074 7 17 128
1933359S17154 1934 81 SP EA NOT_NAMED 1933-12-28 18:00:00 TS -23.1844 154.738 main 228 228 ______P__PP___ -1 -23.2397 154.737 -23.2216 154.701 TC -23.0918 154.776 7 16 123
1933359S17154 1934 81 SP EA NOT_NAMED 1933-12-28 21:00:00 TS -23.5869 155.476 main 260 260 ______P__PP___ -1 -23.6592 155.509 -23.6270 155.444 TC -23.4844 155.468 7 15 120
1933359S17154 1934 81 SP EA NOT_NAMED 1933-12-28 23:00:00 TS -23.8155 155.949 bom main 286 286 ______O__PO___ -1 -23.9000 156.000 -23.8775 155.947 TC -23.7000 155.900 7 14 117
1933359S17154 1934 81 SP EA NOT_NAMED 1933-12-29 00:00:00 TS -23.9126 156.168 main 308 308 ______P__OP___ -1 -24.0086 156.234 -24.0000 156.200 TC -23.7947 156.094 7 12 115
1933359S17154 1934 81 SP EA NOT_NAMED 1933-12-29 03:00:00 NR -24.1546 156.761 main 354 354 ______P___P___ -1 -24.2904 156.885 TC -24.0187 156.636 7 11 113
1933359S17154 1934 81 SP EA NOT_NAMED 1933-12-29 06:00:00 NR -24.3465 157.301 main 401 399 ______P___P___ -1 -24.5135 157.471 TC -24.1796 157.132 7 10 110
1933359S17154 1934 81 SP EA NOT_NAMED 1933-12-29 09:00:00 NR -24.4993 157.798 main 447 447 ______P___P___ -1 -24.6871 157.999 TC -24.3115 157.598 7 9 108
1933359S17154 1934 81 SP EA NOT_NAMED 1933-12-29 11:00:00 NR -24.5898 158.112 main 476 476 ______P___O___ -1 -24.7797 158.324 TC -24.4000 157.900 7 9 108
1933359S17154 1934 81 SP EA NOT_NAMED 1933-12-29 12:00:00 NR -24.6340 158.265 main 496 495 ______P___P___ -1 -24.8200 158.480 -24.4480 158.050 7 9 108
1933359S17154 1934 81 SP EA NOT_NAMED 1933-12-29 15:00:00 NR -24.7643 158.712 main 534 534 ______P___P___ -1 -24.9212 158.923 -24.6074 158.501 7 8 108
1933359S17154 1934 81 SP EA NOT_NAMED 1933-12-29 18:00:00 NR -24.8918 159.145 main 574 574 ______P___P___ -1 -24.9991 159.339 -24.7846 158.950 7 8 108
1933359S17154 1934 81 SP EA NOT_NAMED 1933-12-29 21:00:00 NR -25.0173 159.569 main 624 624 ______P___P___ -1 -25.0621 159.738 -24.9724 159.400 7 8 108
1933359S17154 1934 81 SP EA NOT_NAMED 1933-12-29 23:00:00 NR -25.1000 159.850 bom main 654 ______O___O___ -1 -25.1000 160.000 -25.1000 159.700 7 8 108

デジタル台風データ・検索

IBTrACS Databaseについて

本データベースは、米国NOAAが公開する1842年以降の世界の熱帯低気圧のベストトラックデータアーカイブInternational Best Track Archive for Climate Stewardship (IBTrACS)を、ウェブで閲覧しやすい形式に変換したものです。

最終更新日:2021-12-03